LOG708 GCFV-GMAD
Flight info
| Callsign | LOG708 |
|---|---|
| Flight time | 0h 59m |
| Altitude | FL180 |
| Route | KORA9Q KORAL G5 SONSO BULOK BULO2A |
| Aircraft | DH8D/M-SDE2E3FGRY/N |
Departure
| Time | 2026-04-28 09:27 |
|---|---|
| Airport | Fuerteventura Airport (GCFV) |
Arrival
| Time | 2026-04-28 10:26 |
|---|---|
| Airport | Al Massira Airport (GMAD) |
| Time | Latitude | Longitude | Altitude | Speed | Heading |
|---|---|---|---|---|---|
| 2026-04-28 09:15 | 28.45145 | -13.86864 | 470 ft | 0 kts | 272° |
| 2026-04-28 09:22 | 28.45145 | -13.86849 | 470 ft | 3 kts | 272° |
| 2026-04-28 09:22 | 28.45144 | -13.86822 | 470 ft | 3 kts | 272° |
| 2026-04-28 09:22 | 28.45133 | -13.86802 | 470 ft | 3 kts | 352° |
| 2026-04-28 09:23 | 28.45124 | -13.86802 | 470 ft | 0 kts | 17° |
| 2026-04-28 09:23 | 28.45135 | -13.86799 | 470 ft | 3 kts | 17° |
| 2026-04-28 09:24 | 28.45148 | -13.86774 | 470 ft | 5 kts | 100° |
| 2026-04-28 09:24 | 28.45113 | -13.86734 | 470 ft | 11 kts | 176° |
| 2026-04-28 09:24 | 28.45023 | -13.86730 | 470 ft | 16 kts | 178° |
| 2026-04-28 09:24 | 28.44903 | -13.86729 | 470 ft | 18 kts | 179° |
| 2026-04-28 09:25 | 28.44851 | -13.86630 | 470 ft | 16 kts | 96° |
| 2026-04-28 09:25 | 28.44766 | -13.86576 | 470 ft | 20 kts | 182° |
| 2026-04-28 09:25 | 28.44605 | -13.86582 | 470 ft | 27 kts | 182° |
| 2026-04-28 09:25 | 28.44398 | -13.86590 | 470 ft | 30 kts | 182° |
| 2026-04-28 09:26 | 28.44217 | -13.86597 | 470 ft | 19 kts | 181° |
| 2026-04-28 09:26 | 28.44148 | -13.86552 | 470 ft | 12 kts | 69° |
| 2026-04-28 09:26 | 28.44207 | -13.86466 | 470 ft | 17 kts | 49° |
| 2026-04-28 09:26 | 28.44297 | -13.86415 | 470 ft | 12 kts | 3° |
| 2026-04-28 09:27 | 28.45226 | -13.86372 | 471 ft | 138 kts | 359° |
| 2026-04-28 09:27 | 28.46260 | -13.86385 | 849 ft | 163 kts | 354° |
| 2026-04-28 09:27 | 28.47409 | -13.86385 | 1482 ft | 176 kts | 2° |
| 2026-04-28 09:28 | 28.48562 | -13.85903 | 2180 ft | 191 kts | 27° |
| 2026-04-28 09:28 | 28.49637 | -13.84979 | 2902 ft | 199 kts | 34° |
| 2026-04-28 09:28 | 28.50696 | -13.84044 | 3596 ft | 206 kts | 31° |
| 2026-04-28 09:28 | 28.51889 | -13.83095 | 4302 ft | 213 kts | 31° |
| 2026-04-28 09:29 | 28.53152 | -13.82190 | 5037 ft | 218 kts | 27° |
| 2026-04-28 09:29 | 28.54448 | -13.81342 | 5714 ft | 223 kts | 26° |
| 2026-04-28 09:29 | 28.55803 | -13.80508 | 6419 ft | 227 kts | 25° |
| 2026-04-28 09:29 | 28.57217 | -13.79695 | 7137 ft | 231 kts | 22° |
| 2026-04-28 09:30 | 28.58668 | -13.78886 | 7827 ft | 236 kts | 24° |
| 2026-04-28 09:30 | 28.60119 | -13.78094 | 8537 ft | 236 kts | 22° |
| 2026-04-28 09:30 | 28.61600 | -13.77295 | 9208 ft | 237 kts | 20° |
| 2026-04-28 09:30 | 28.63067 | -13.76499 | 9917 ft | 237 kts | 22° |
| 2026-04-28 09:31 | 28.64543 | -13.75693 | 10624 ft | 236 kts | 20° |
| 2026-04-28 09:31 | 28.65994 | -13.74895 | 11194 ft | 240 kts | 21° |
| 2026-04-28 09:31 | 28.67512 | -13.74063 | 11579 ft | 251 kts | 21° |
| 2026-04-28 09:31 | 28.69104 | -13.73201 | 11956 ft | 259 kts | 21° |
| 2026-04-28 09:32 | 28.70715 | -13.72353 | 12325 ft | 265 kts | 20° |
| 2026-04-28 09:32 | 28.72391 | -13.71502 | 12698 ft | 269 kts | 19° |
| 2026-04-28 09:32 | 28.74105 | -13.70648 | 13073 ft | 273 kts | 19° |
| 2026-04-28 09:32 | 28.75829 | -13.69790 | 13435 ft | 276 kts | 19° |
| 2026-04-28 09:33 | 28.77559 | -13.68927 | 13731 ft | 280 kts | 19° |
| 2026-04-28 09:33 | 28.79333 | -13.68034 | 14030 ft | 284 kts | 20° |
| 2026-04-28 09:33 | 28.81136 | -13.67117 | 14330 ft | 287 kts | 20° |
| 2026-04-28 09:33 | 28.82936 | -13.66200 | 14628 ft | 289 kts | 20° |
| 2026-04-28 09:34 | 28.84747 | -13.65276 | 14925 ft | 290 kts | 20° |
| 2026-04-28 09:34 | 28.86563 | -13.64350 | 15222 ft | 291 kts | 20° |
| 2026-04-28 09:34 | 28.88407 | -13.63406 | 15522 ft | 292 kts | 20° |
| 2026-04-28 09:34 | 28.90256 | -13.62457 | 15822 ft | 293 kts | 20° |
| 2026-04-28 09:35 | 28.92097 | -13.61515 | 16120 ft | 293 kts | 20° |
| 2026-04-28 09:35 | 28.93943 | -13.60573 | 16418 ft | 294 kts | 20° |
| 2026-04-28 09:35 | 28.95803 | -13.59654 | 16717 ft | 293 kts | 18° |
| 2026-04-28 09:35 | 28.97690 | -13.58814 | 17016 ft | 293 kts | 16° |
| 2026-04-28 09:36 | 28.99598 | -13.58026 | 17316 ft | 292 kts | 15° |
| 2026-04-28 09:36 | 29.01464 | -13.57288 | 17608 ft | 292 kts | 14° |
| 2026-04-28 09:36 | 29.03324 | -13.56550 | 17851 ft | 294 kts | 14° |
| 2026-04-28 09:36 | 29.05259 | -13.55775 | 17938 ft | 301 kts | 15° |
| 2026-04-28 09:37 | 29.07241 | -13.54971 | 17990 ft | 308 kts | 15° |
| 2026-04-28 09:37 | 29.09234 | -13.54153 | 18010 ft | 315 kts | 15° |
| 2026-04-28 09:37 | 29.11280 | -13.53306 | 18018 ft | 321 kts | 16° |
| 2026-04-28 09:37 | 29.13382 | -13.52429 | 18020 ft | 326 kts | 16° |
| 2026-04-28 09:38 | 29.15473 | -13.51416 | 18016 ft | 333 kts | 25° |
| 2026-04-28 09:38 | 29.17289 | -13.49805 | 18021 ft | 342 kts | 41° |
| 2026-04-28 09:38 | 29.18793 | -13.47713 | 18027 ft | 348 kts | 51° |
| 2026-04-28 09:38 | 29.20167 | -13.45438 | 18039 ft | 350 kts | 53° |
| 2026-04-28 09:39 | 29.21524 | -13.43120 | 18044 ft | 352 kts | 53° |
| 2026-04-28 09:39 | 29.22890 | -13.40794 | 18046 ft | 354 kts | 53° |
| 2026-04-28 09:39 | 29.24270 | -13.38477 | 18046 ft | 355 kts | 52° |
| 2026-04-28 09:39 | 29.25660 | -13.36174 | 18046 ft | 357 kts | 52° |
| 2026-04-28 09:40 | 29.27071 | -13.33856 | 18046 ft | 357 kts | 52° |
| 2026-04-28 09:40 | 29.28487 | -13.31540 | 18046 ft | 358 kts | 52° |
| 2026-04-28 09:40 | 29.29910 | -13.29218 | 18046 ft | 359 kts | 52° |
| 2026-04-28 09:40 | 29.31344 | -13.26880 | 18045 ft | 359 kts | 52° |
| 2026-04-28 09:41 | 29.32773 | -13.24547 | 18045 ft | 360 kts | 52° |
| 2026-04-28 09:41 | 29.34192 | -13.22225 | 18045 ft | 360 kts | 52° |
| 2026-04-28 09:41 | 29.35621 | -13.19898 | 18044 ft | 360 kts | 52° |
| 2026-04-28 09:41 | 29.37061 | -13.17555 | 18041 ft | 361 kts | 52° |
| 2026-04-28 09:42 | 29.38457 | -13.15264 | 18040 ft | 361 kts | 52° |
| 2026-04-28 09:42 | 29.39873 | -13.12924 | 18039 ft | 361 kts | 52° |
| 2026-04-28 09:42 | 29.41290 | -13.10578 | 18038 ft | 361 kts | 52° |
| 2026-04-28 09:42 | 29.42706 | -13.08237 | 18037 ft | 362 kts | 52° |
| 2026-04-28 09:43 | 29.44134 | -13.05881 | 18036 ft | 362 kts | 52° |
| 2026-04-28 09:43 | 29.45562 | -13.03528 | 18035 ft | 362 kts | 52° |
| 2026-04-28 09:43 | 29.46979 | -13.01195 | 18034 ft | 362 kts | 52° |
| 2026-04-28 09:43 | 29.48374 | -12.98899 | 18033 ft | 362 kts | 52° |
| 2026-04-28 09:44 | 29.49802 | -12.96541 | 18032 ft | 362 kts | 52° |
| 2026-04-28 09:44 | 29.51232 | -12.94176 | 18031 ft | 362 kts | 52° |
| 2026-04-28 09:44 | 29.52657 | -12.91817 | 18030 ft | 362 kts | 52° |
| 2026-04-28 09:44 | 29.54078 | -12.89469 | 18029 ft | 362 kts | 52° |
| 2026-04-28 09:45 | 29.55504 | -12.87117 | 18028 ft | 362 kts | 52° |
| 2026-04-28 09:45 | 29.56927 | -12.84766 | 18027 ft | 362 kts | 52° |
| 2026-04-28 09:45 | 29.58343 | -12.82420 | 18026 ft | 362 kts | 52° |
| 2026-04-28 09:45 | 29.59769 | -12.80054 | 18025 ft | 362 kts | 52° |
| 2026-04-28 09:46 | 29.61196 | -12.77685 | 18024 ft | 362 kts | 52° |
| 2026-04-28 09:46 | 29.62612 | -12.75336 | 18022 ft | 362 kts | 52° |
| 2026-04-28 09:46 | 29.64025 | -12.72992 | 18021 ft | 362 kts | 52° |
| 2026-04-28 09:46 | 29.65452 | -12.70623 | 18020 ft | 362 kts | 53° |
| 2026-04-28 09:47 | 29.66849 | -12.68301 | 18019 ft | 362 kts | 53° |
| 2026-04-28 09:47 | 29.68254 | -12.65967 | 18018 ft | 362 kts | 53° |
| 2026-04-28 09:47 | 29.69636 | -12.63668 | 18017 ft | 362 kts | 53° |
| 2026-04-28 09:47 | 29.71055 | -12.61309 | 18016 ft | 362 kts | 53° |
| 2026-04-28 09:48 | 29.72472 | -12.58950 | 18015 ft | 362 kts | 53° |
| 2026-04-28 09:48 | 29.73902 | -12.56567 | 18014 ft | 363 kts | 53° |
| 2026-04-28 09:48 | 29.75318 | -12.54192 | 18013 ft | 363 kts | 53° |
| 2026-04-28 09:48 | 29.76726 | -12.51809 | 18012 ft | 363 kts | 53° |
| 2026-04-28 09:49 | 29.78137 | -12.49414 | 18011 ft | 363 kts | 53° |
| 2026-04-28 09:49 | 29.79542 | -12.47031 | 18010 ft | 363 kts | 53° |
| 2026-04-28 09:49 | 29.80942 | -12.44656 | 18009 ft | 363 kts | 53° |
| 2026-04-28 09:49 | 29.82349 | -12.42270 | 18007 ft | 363 kts | 53° |
| 2026-04-28 09:50 | 29.83755 | -12.39885 | 18006 ft | 363 kts | 53° |
| 2026-04-28 09:50 | 29.85168 | -12.37489 | 18005 ft | 363 kts | 53° |
| 2026-04-28 09:50 | 29.86576 | -12.35099 | 18004 ft | 363 kts | 53° |
| 2026-04-28 09:50 | 29.87989 | -12.32703 | 18004 ft | 363 kts | 53° |
| 2026-04-28 09:51 | 29.89398 | -12.30312 | 18003 ft | 363 kts | 53° |
| 2026-04-28 09:51 | 29.90799 | -12.27935 | 18002 ft | 363 kts | 53° |
| 2026-04-28 09:51 | 29.92174 | -12.25601 | 18001 ft | 363 kts | 53° |
| 2026-04-28 09:51 | 29.93572 | -12.23226 | 18000 ft | 363 kts | 53° |
| 2026-04-28 09:52 | 29.94969 | -12.20849 | 17999 ft | 363 kts | 53° |
| 2026-04-28 09:52 | 29.96380 | -12.18447 | 17999 ft | 363 kts | 53° |
| 2026-04-28 09:52 | 29.97793 | -12.16038 | 17998 ft | 363 kts | 53° |
| 2026-04-28 09:52 | 29.99201 | -12.13639 | 17997 ft | 363 kts | 53° |
| 2026-04-28 09:53 | 30.00524 | -12.11190 | 17993 ft | 365 kts | 60° |
| 2026-04-28 09:53 | 30.01385 | -12.08441 | 17995 ft | 367 kts | 75° |
| 2026-04-28 09:53 | 30.01757 | -12.05554 | 17997 ft | 368 kts | 83° |
| 2026-04-28 09:53 | 30.01954 | -12.02670 | 17995 ft | 368 kts | 85° |
| 2026-04-28 09:54 | 30.02132 | -11.99757 | 17993 ft | 369 kts | 85° |
| 2026-04-28 09:54 | 30.02326 | -11.96824 | 17992 ft | 369 kts | 84° |
| 2026-04-28 09:54 | 30.02542 | -11.93896 | 17991 ft | 369 kts | 84° |
| 2026-04-28 09:54 | 30.02770 | -11.90970 | 17990 ft | 369 kts | 84° |
| 2026-04-28 09:55 | 30.03008 | -11.88023 | 17990 ft | 369 kts | 84° |
| 2026-04-28 09:55 | 30.03250 | -11.85085 | 17989 ft | 369 kts | 83° |
| 2026-04-28 09:55 | 30.03493 | -11.82157 | 17988 ft | 369 kts | 83° |
| 2026-04-28 09:55 | 30.03734 | -11.79229 | 17987 ft | 369 kts | 83° |
| 2026-04-28 09:56 | 30.03973 | -11.76294 | 17986 ft | 369 kts | 84° |
| 2026-04-28 09:56 | 30.04210 | -11.73356 | 17986 ft | 369 kts | 84° |
| 2026-04-28 09:56 | 30.04446 | -11.70423 | 17985 ft | 369 kts | 84° |
| 2026-04-28 09:56 | 30.04680 | -11.67490 | 17984 ft | 369 kts | 84° |
| 2026-04-28 09:57 | 30.04915 | -11.64554 | 17984 ft | 369 kts | 84° |
| 2026-04-28 09:57 | 30.05150 | -11.61617 | 17983 ft | 369 kts | 84° |
| 2026-04-28 09:57 | 30.05384 | -11.58687 | 17982 ft | 369 kts | 84° |
| 2026-04-28 09:57 | 30.05616 | -11.55758 | 17982 ft | 369 kts | 84° |
| 2026-04-28 09:58 | 30.05846 | -11.52822 | 17981 ft | 368 kts | 84° |
| 2026-04-28 09:58 | 30.06077 | -11.49884 | 17980 ft | 368 kts | 84° |
| 2026-04-28 09:58 | 30.06306 | -11.46959 | 17980 ft | 368 kts | 84° |
| 2026-04-28 09:58 | 30.06535 | -11.44035 | 17979 ft | 368 kts | 84° |
| 2026-04-28 09:59 | 30.06765 | -11.41101 | 17979 ft | 368 kts | 84° |
| 2026-04-28 09:59 | 30.06996 | -11.38158 | 17978 ft | 368 kts | 84° |
| 2026-04-28 09:59 | 30.07223 | -11.35239 | 17978 ft | 368 kts | 84° |
| 2026-04-28 09:59 | 30.07449 | -11.32316 | 17977 ft | 368 kts | 84° |
| 2026-04-28 10:00 | 30.07676 | -11.29379 | 17977 ft | 368 kts | 84° |
| 2026-04-28 10:00 | 30.07902 | -11.26445 | 17976 ft | 368 kts | 84° |
| 2026-04-28 10:00 | 30.08121 | -11.23584 | 17976 ft | 368 kts | 84° |
| 2026-04-28 10:00 | 30.08345 | -11.20660 | 17976 ft | 368 kts | 84° |
| 2026-04-28 10:01 | 30.08569 | -11.17727 | 17975 ft | 367 kts | 84° |
| 2026-04-28 10:01 | 30.08793 | -11.14797 | 17975 ft | 367 kts | 84° |
| 2026-04-28 10:01 | 30.09015 | -11.11874 | 17969 ft | 367 kts | 84° |
| 2026-04-28 10:01 | 30.09235 | -11.08956 | 17961 ft | 367 kts | 84° |
| 2026-04-28 10:02 | 30.09456 | -11.06026 | 17958 ft | 367 kts | 84° |
| 2026-04-28 10:02 | 30.09675 | -11.03107 | 17956 ft | 367 kts | 84° |
| 2026-04-28 10:02 | 30.09894 | -11.00185 | 17956 ft | 367 kts | 84° |
| 2026-04-28 10:02 | 30.10112 | -10.97266 | 17956 ft | 367 kts | 84° |
| 2026-04-28 10:03 | 30.10331 | -10.94338 | 17956 ft | 367 kts | 84° |
| 2026-04-28 10:03 | 30.10548 | -10.91408 | 17956 ft | 367 kts | 84° |
| 2026-04-28 10:03 | 30.10765 | -10.88485 | 17956 ft | 367 kts | 84° |
| 2026-04-28 10:03 | 30.10980 | -10.85570 | 17957 ft | 367 kts | 84° |
| 2026-04-28 10:04 | 30.11195 | -10.82647 | 17957 ft | 367 kts | 85° |
| 2026-04-28 10:04 | 30.11410 | -10.79718 | 17957 ft | 367 kts | 85° |
| 2026-04-28 10:04 | 30.11625 | -10.76794 | 17957 ft | 366 kts | 85° |
| 2026-04-28 10:04 | 30.11835 | -10.73910 | 17957 ft | 366 kts | 85° |
| 2026-04-28 10:05 | 30.12045 | -10.71015 | 17958 ft | 366 kts | 85° |
| 2026-04-28 10:05 | 30.12257 | -10.68098 | 17958 ft | 366 kts | 85° |
| 2026-04-28 10:05 | 30.12467 | -10.65185 | 17958 ft | 366 kts | 85° |
| 2026-04-28 10:05 | 30.12675 | -10.62293 | 17958 ft | 366 kts | 85° |
| 2026-04-28 10:06 | 30.12880 | -10.59428 | 17958 ft | 366 kts | 85° |
| 2026-04-28 10:06 | 30.13090 | -10.56504 | 17959 ft | 366 kts | 85° |
| 2026-04-28 10:06 | 30.13298 | -10.53592 | 17959 ft | 366 kts | 85° |
| 2026-04-28 10:06 | 30.13500 | -10.50751 | 17959 ft | 366 kts | 85° |
| 2026-04-28 10:07 | 30.13704 | -10.47862 | 17959 ft | 366 kts | 85° |
| 2026-04-28 10:07 | 30.13911 | -10.44934 | 17959 ft | 366 kts | 85° |
| 2026-04-28 10:07 | 30.14116 | -10.42022 | 17960 ft | 366 kts | 85° |
| 2026-04-28 10:07 | 30.14322 | -10.39107 | 17960 ft | 366 kts | 85° |
| 2026-04-28 10:08 | 30.14527 | -10.36186 | 17960 ft | 366 kts | 85° |
| 2026-04-28 10:08 | 30.14732 | -10.33254 | 17960 ft | 366 kts | 85° |
| 2026-04-28 10:08 | 30.14935 | -10.30328 | 17961 ft | 366 kts | 85° |
| 2026-04-28 10:08 | 30.15136 | -10.27429 | 17961 ft | 367 kts | 85° |
| 2026-04-28 10:09 | 30.15334 | -10.24547 | 17961 ft | 366 kts | 85° |
| 2026-04-28 10:09 | 30.15535 | -10.21598 | 17565 ft | 369 kts | 86° |
| 2026-04-28 10:09 | 30.15734 | -10.18662 | 17068 ft | 367 kts | 85° |
| 2026-04-28 10:09 | 30.15933 | -10.15759 | 16572 ft | 365 kts | 85° |
| 2026-04-28 10:10 | 30.16130 | -10.12863 | 16072 ft | 361 kts | 85° |
| 2026-04-28 10:10 | 30.16326 | -10.10002 | 15574 ft | 357 kts | 85° |
| 2026-04-28 10:10 | 30.16523 | -10.07156 | 15074 ft | 354 kts | 85° |
| 2026-04-28 10:10 | 30.16712 | -10.04359 | 14579 ft | 351 kts | 85° |
| 2026-04-28 10:11 | 30.16898 | -10.01568 | 14080 ft | 348 kts | 85° |
| 2026-04-28 10:11 | 30.17083 | -9.98793 | 13581 ft | 346 kts | 85° |
| 2026-04-28 10:11 | 30.17264 | -9.96060 | 13082 ft | 340 kts | 85° |
| 2026-04-28 10:11 | 30.17441 | -9.93397 | 12591 ft | 334 kts | 85° |
| 2026-04-28 10:12 | 30.17615 | -9.90792 | 12099 ft | 329 kts | 85° |
| 2026-04-28 10:12 | 30.17788 | -9.88205 | 11603 ft | 323 kts | 85° |
| 2026-04-28 10:12 | 30.17957 | -9.85651 | 11107 ft | 319 kts | 85° |
| 2026-04-28 10:12 | 30.18273 | -9.83158 | 10611 ft | 317 kts | 76° |
| 2026-04-28 10:13 | 30.18905 | -9.80778 | 10120 ft | 314 kts | 69° |
| 2026-04-28 10:13 | 30.19655 | -9.78431 | 9621 ft | 309 kts | 68° |
| 2026-04-28 10:13 | 30.20406 | -9.76145 | 9118 ft | 298 kts | 68° |
| 2026-04-28 10:13 | 30.21115 | -9.73964 | 8623 ft | 286 kts | 68° |
| 2026-04-28 10:14 | 30.21790 | -9.71861 | 8121 ft | 275 kts | 68° |
| 2026-04-28 10:14 | 30.22437 | -9.69829 | 7620 ft | 266 kts | 68° |
| 2026-04-28 10:14 | 30.23046 | -9.67899 | 7130 ft | 259 kts | 69° |
| 2026-04-28 10:14 | 30.23643 | -9.65997 | 6636 ft | 252 kts | 69° |
| 2026-04-28 10:15 | 30.24242 | -9.64090 | 6145 ft | 260 kts | 69° |
| 2026-04-28 10:15 | 30.24857 | -9.62119 | 5645 ft | 262 kts | 69° |
| 2026-04-28 10:15 | 30.25459 | -9.60171 | 5152 ft | 262 kts | 70° |
| 2026-04-28 10:15 | 30.25799 | -9.58133 | 4657 ft | 260 kts | 87° |
| 2026-04-28 10:16 | 30.25745 | -9.56101 | 4163 ft | 254 kts | 93° |
| 2026-04-28 10:16 | 30.25629 | -9.54084 | 3664 ft | 252 kts | 93° |
| 2026-04-28 10:16 | 30.25520 | -9.52069 | 3213 ft | 250 kts | 93° |
| 2026-04-28 10:16 | 30.25416 | -9.50083 | 3084 ft | 247 kts | 92° |
| 2026-04-28 10:17 | 30.25313 | -9.48171 | 3027 ft | 243 kts | 92° |
| 2026-04-28 10:17 | 30.25208 | -9.46255 | 2900 ft | 242 kts | 93° |
| 2026-04-28 10:17 | 30.25102 | -9.44304 | 2646 ft | 243 kts | 93° |
| 2026-04-28 10:17 | 30.25003 | -9.42401 | 2562 ft | 238 kts | 92° |
| 2026-04-28 10:18 | 30.24905 | -9.40524 | 2516 ft | 235 kts | 93° |
| 2026-04-28 10:18 | 30.24806 | -9.38659 | 2500 ft | 231 kts | 93° |
| 2026-04-28 10:18 | 30.24712 | -9.36918 | 2493 ft | 227 kts | 93° |
| 2026-04-28 10:18 | 30.24617 | -9.35129 | 2490 ft | 224 kts | 92° |
| 2026-04-28 10:19 | 30.24521 | -9.33339 | 2491 ft | 222 kts | 93° |
| 2026-04-28 10:19 | 30.24425 | -9.31586 | 2491 ft | 220 kts | 93° |
| 2026-04-28 10:19 | 30.24330 | -9.29829 | 2492 ft | 219 kts | 93° |
| 2026-04-28 10:19 | 30.24203 | -9.27494 | 2493 ft | 217 kts | 93° |
| 2026-04-28 10:20 | 30.24141 | -9.26357 | 2493 ft | 217 kts | 93° |
| 2026-04-28 10:20 | 30.24045 | -9.24637 | 2494 ft | 216 kts | 93° |
| 2026-04-28 10:20 | 30.23950 | -9.22919 | 2494 ft | 216 kts | 93° |
| 2026-04-28 10:20 | 30.23992 | -9.21210 | 2486 ft | 215 kts | 73° |
| 2026-04-28 10:21 | 30.24758 | -9.19786 | 2487 ft | 211 kts | 39° |
| 2026-04-28 10:21 | 30.26065 | -9.19127 | 2487 ft | 204 kts | 5° |
| 2026-04-28 10:21 | 30.27414 | -9.19242 | 2487 ft | 191 kts | 347° |
| 2026-04-28 10:21 | 30.28638 | -9.19715 | 2483 ft | 185 kts | 334° |
| 2026-04-28 10:22 | 30.29738 | -9.20466 | 2503 ft | 184 kts | 326° |
| 2026-04-28 10:22 | 30.30720 | -9.21403 | 2493 ft | 184 kts | 305° |
| 2026-04-28 10:22 | 30.31266 | -9.22721 | 2507 ft | 185 kts | 285° |
| 2026-04-28 10:22 | 30.31519 | -9.24167 | 2469 ft | 180 kts | 278° |
| 2026-04-28 10:23 | 30.31680 | -9.25557 | 2475 ft | 168 kts | 277° |
| 2026-04-28 10:23 | 30.31810 | -9.26876 | 2398 ft | 163 kts | 276° |
| 2026-04-28 10:23 | 30.31909 | -9.28179 | 2147 ft | 165 kts | 273° |
| 2026-04-28 10:23 | 30.31986 | -9.29465 | 1947 ft | 158 kts | 274° |
| 2026-04-28 10:24 | 30.32038 | -9.30726 | 1823 ft | 156 kts | 271° |
| 2026-04-28 10:24 | 30.32072 | -9.31933 | 1524 ft | 144 kts | 271° |
| 2026-04-28 10:24 | 30.32103 | -9.33038 | 1315 ft | 133 kts | 272° |
| 2026-04-28 10:24 | 30.32127 | -9.34089 | 1257 ft | 132 kts | 270° |
| 2026-04-28 10:25 | 30.32148 | -9.35176 | 996 ft | 132 kts | 270° |
| 2026-04-28 10:25 | 30.32162 | -9.36223 | 832 ft | 128 kts | 270° |
| 2026-04-28 10:25 | 30.32178 | -9.37260 | 659 ft | 130 kts | 270° |
| 2026-04-28 10:25 | 30.32197 | -9.38286 | 492 ft | 127 kts | 270° |
| 2026-04-28 10:26 | 30.32205 | -9.39278 | 320 ft | 123 kts | 269° |
| 2026-04-28 10:26 | 30.32236 | -9.40167 | 259 ft | 87 kts | 271° |
| 2026-04-28 10:26 | 30.32244 | -9.40474 | 258 ft | 13 kts | 271° |
| 2026-04-28 10:26 | 30.32262 | -9.40598 | 258 ft | 17 kts | 316° |
| 2026-04-28 10:27 | 30.32388 | -9.40619 | 258 ft | 22 kts | 357° |
| 2026-04-28 10:27 | 30.32568 | -9.40620 | 258 ft | 30 kts | 0° |
| 2026-04-28 10:27 | 30.32751 | -9.40620 | 258 ft | 22 kts | 359° |
| 2026-04-28 10:27 | 30.32818 | -9.40697 | 258 ft | 16 kts | 257° |
| 2026-04-28 10:28 | 30.32819 | -9.40753 | 258 ft | 0 kts | 324° |
| 2026-04-28 10:28 | 30.32839 | -9.40757 | 258 ft | 5 kts | 359° |
| 2026-04-28 10:28 | 30.32893 | -9.40755 | 258 ft | 8 kts | 2° |
| 2026-04-28 10:29 | 30.32906 | -9.40755 | 258 ft | 0 kts | 1° |